createdAt,value
2023-10-09T00:00:37.306Z,78.90
2023-10-09T00:03:07.553Z,78.80
2023-10-09T00:05:46.952Z,78.70
2023-10-09T00:08:19.772Z,78.80
2023-10-09T00:10:51.290Z,79.00
2023-10-09T00:13:20.078Z,79.00
2023-10-09T00:15:54.197Z,79.10
2023-10-09T00:18:30.266Z,79.10
2023-10-09T00:21:11.974Z,79.00
2023-10-09T00:23:40.422Z,79.10
2023-10-09T00:26:12.337Z,79.20
2023-10-09T00:28:52.290Z,79.20
2023-10-09T00:31:31.124Z,79.30
2023-10-09T00:34:04.777Z,79.20
2023-10-09T00:36:34.113Z,79.20
2023-10-09T00:39:14.416Z,79.20
2023-10-09T00:41:43.031Z,79.30
2023-10-09T00:44:12.284Z,79.30
2023-10-09T00:46:44.303Z,79.30
2023-10-09T00:49:12.342Z,79.40
2023-10-09T00:51:57.318Z,79.40
2023-10-09T00:54:29.710Z,79.40
2023-10-09T00:57:07.738Z,79.40
2023-10-09T00:59:40.123Z,79.40
2023-10-09T01:02:10.994Z,79.40
2023-10-09T01:04:42.416Z,79.30
2023-10-09T01:07:12.063Z,79.30
2023-10-09T01:09:44.085Z,79.30
2023-10-09T01:12:18.106Z,79.30
2023-10-09T01:14:47.313Z,79.30
2023-10-09T01:17:31.790Z,79.30
2023-10-09T01:20:04.621Z,79.30
2023-10-09T01:22:32.797Z,79.20
2023-10-09T01:25:07.051Z,79.30
2023-10-09T01:27:35.250Z,79.40
2023-10-09T01:30:03.290Z,79.40
2023-10-09T01:32:31.352Z,79.40
2023-10-09T01:34:59.275Z,79.40
2023-10-09T01:37:30.616Z,79.30
2023-10-09T01:40:00.994Z,79.30
2023-10-09T01:42:35.608Z,79.30
2023-10-09T01:45:17.146Z,79.40
2023-10-09T01:47:52.948Z,79.40
2023-10-09T01:50:25.881Z,79.40
2023-10-09T01:52:54.222Z,79.40
2023-10-09T01:55:34.100Z,79.40
2023-10-09T01:58:06.827Z,79.40
2023-10-09T02:00:43.417Z,79.50
2023-10-09T02:03:16.419Z,79.40
2023-10-09T02:05:44.591Z,79.50
2023-10-09T02:08:13.991Z,79.60
2023-10-09T02:10:48.664Z,79.60
2023-10-09T02:13:19.333Z,79.70
2023-10-09T02:16:00.162Z,79.70
2023-10-09T02:18:40.945Z,79.60
2023-10-09T02:21:15.817Z,79.50
2023-10-09T02:23:48.005Z,79.40
2023-10-09T02:26:21.336Z,79.30
2023-10-09T02:29:00.178Z,79.40
2023-10-09T02:31:37.272Z,79.40
2023-10-09T02:34:06.808Z,79.40
2023-10-09T02:36:39.660Z,79.50
2023-10-09T02:39:08.908Z,79.40
2023-10-09T02:41:43.315Z,79.30
2023-10-09T02:44:13.133Z,79.20
2023-10-09T02:46:41.512Z,79.30
2023-10-09T02:49:11.154Z,79.30
2023-10-09T02:51:43.006Z,79.20
2023-10-09T02:54:20.625Z,79.10
2023-10-09T02:56:56.219Z,79.10
2023-10-09T02:59:26.132Z,79.10
2023-10-09T03:01:54.821Z,79.10
2023-10-09T03:04:25.343Z,78.80
2023-10-09T03:06:58.211Z,78.80
2023-10-09T03:09:29.563Z,78.90
2023-10-09T03:12:03.626Z,78.90
2023-10-09T03:14:36.540Z,78.90
2023-10-09T03:17:05.142Z,79.00
2023-10-09T03:19:38.728Z,79.00
2023-10-09T03:22:10.538Z,79.10
2023-10-09T03:24:40.343Z,79.30
2023-10-09T03:27:08.518Z,79.30
2023-10-09T03:29:38.250Z,79.40
2023-10-09T03:32:08.034Z,79.40
2023-10-09T03:34:36.027Z,79.40
2023-10-09T03:37:07.462Z,79.50
2023-10-09T03:39:40.230Z,79.50
2023-10-09T03:42:20.504Z,79.50
2023-10-09T03:44:55.138Z,79.50
2023-10-09T03:47:25.328Z,79.50
2023-10-09T03:49:55.187Z,79.60
2023-10-09T03:52:27.285Z,79.50
2023-10-09T03:54:55.853Z,79.50
2023-10-09T03:57:24.735Z,79.50
2023-10-09T03:59:56.532Z,79.40
2023-10-09T04:02:24.998Z,79.20
2023-10-09T04:04:53.360Z,79.20
2023-10-09T04:07:22.571Z,79.30
2023-10-09T04:10:03.771Z,79.30
2023-10-09T04:12:32.492Z,79.40
2023-10-09T04:15:05.904Z,79.40
2023-10-09T04:17:37.512Z,79.50
2023-10-09T04:20:24.363Z,79.50
2023-10-09T04:22:52.681Z,79.50
2023-10-09T04:25:27.814Z,79.60
2023-10-09T04:28:04.617Z,79.60
2023-10-09T04:30:41.335Z,79.60
2023-10-09T04:33:29.389Z,79.70
2023-10-09T04:36:15.528Z,79.70
2023-10-09T04:38:56.921Z,79.60
2023-10-09T04:41:34.292Z,79.60
2023-10-09T04:44:20.373Z,79.60
2023-10-09T04:47:06.527Z,79.70
2023-10-09T04:49:50.854Z,79.80
2023-10-09T04:52:52.333Z,79.80
2023-10-09T04:55:25.534Z,79.80
2023-10-09T04:58:09.932Z,79.80
2023-10-09T05:00:49.524Z,79.90
2023-10-09T05:03:29.549Z,80.00
2023-10-09T05:06:01.235Z,80.00
2023-10-09T05:08:33.867Z,79.90
2023-10-09T05:11:17.679Z,79.90
2023-10-09T05:13:47.648Z,79.90
2023-10-09T05:16:19.555Z,80.00
2023-10-09T05:18:57.497Z,80.00
2023-10-09T05:21:37.157Z,80.00
2023-10-09T05:24:17.914Z,80.10
2023-10-09T05:27:15.561Z,80.30
2023-10-09T05:30:00.412Z,80.30
2023-10-09T05:32:36.285Z,80.30
2023-10-09T05:35:08.565Z,80.20
2023-10-09T05:37:44.420Z,80.30
2023-10-09T05:40:24.326Z,80.50
2023-10-09T05:43:04.567Z,80.60
2023-10-09T05:46:05.512Z,80.60
2023-10-09T05:48:55.724Z,80.60
2023-10-09T05:51:42.934Z,80.60
2023-10-09T05:54:24.830Z,80.60
2023-10-09T05:57:21.789Z,80.60
2023-10-09T06:00:07.363Z,80.50
2023-10-09T06:03:02.384Z,80.50
2023-10-09T06:05:42.767Z,80.60
2023-10-09T06:08:14.234Z,80.60
2023-10-09T06:10:42.822Z,80.50
2023-10-09T06:13:25.487Z,80.60
2023-10-09T06:16:10.617Z,80.60
2023-10-09T06:18:44.657Z,80.50
2023-10-09T06:21:27.253Z,80.60
2023-10-09T06:24:15.524Z,80.50
2023-10-09T06:26:53.294Z,80.60
2023-10-09T06:37:35.520Z,80.70
2023-10-09T06:40:32.400Z,80.70
2023-10-09T06:43:08.240Z,80.80
2023-10-09T06:45:46.101Z,80.80
2023-10-09T06:48:32.215Z,80.90
2023-10-09T06:51:08.959Z,80.90
2023-10-09T06:53:56.121Z,80.90
2023-10-09T06:56:27.155Z,81.00
2023-10-09T06:58:56.198Z,81.00
2023-10-09T07:01:40.896Z,81.00
2023-10-09T07:04:19.660Z,81.10
2023-10-09T07:06:52.200Z,81.10
2023-10-09T07:09:21.056Z,81.10
2023-10-09T07:12:11.075Z,81.00
2023-10-09T07:14:56.531Z,81.10
2023-10-09T07:17:27.806Z,81.20
2023-10-09T07:20:10.687Z,81.30
2023-10-09T07:22:53.680Z,81.30
2023-10-09T07:25:41.918Z,81.40
2023-10-09T07:28:30.472Z,81.40
2023-10-09T07:31:01.929Z,81.60
2023-10-09T07:33:55.735Z,81.70
2023-10-09T07:36:35.459Z,81.80
2023-10-09T07:39:04.286Z,81.90
2023-10-09T07:41:45.476Z,81.90
2023-10-09T07:44:35.654Z,82.00
2023-10-09T07:47:24.208Z,82.10
2023-10-09T07:49:54.948Z,82.10
2023-10-09T07:52:27.406Z,82.20
2023-10-09T07:55:02.658Z,82.20
2023-10-09T07:57:40.756Z,82.20
2023-10-09T08:00:29.816Z,82.30
2023-10-09T08:03:01.460Z,82.40
2023-10-09T08:05:34.485Z,82.50
2023-10-09T08:08:39.898Z,82.50
2023-10-09T08:11:35.784Z,82.60
2023-10-09T08:14:21.881Z,82.70
2023-10-09T08:16:50.481Z,82.80
2023-10-09T08:19:34.314Z,82.90
2023-10-09T08:22:34.941Z,82.90
2023-10-09T08:25:03.940Z,83.00
2023-10-09T08:27:55.938Z,83.10
2023-10-09T08:30:49.870Z,83.20
2023-10-09T08:34:22.554Z,83.20
2023-10-09T08:36:24.333Z,83.20
2023-10-09T08:38:53.410Z,83.20
2023-10-09T08:41:24.279Z,83.10
2023-10-09T08:43:53.888Z,83.10
2023-10-09T08:46:29.132Z,83.00
2023-10-09T08:48:59.492Z,83.00
2023-10-09T08:51:30.493Z,83.00
2023-10-09T08:53:59.062Z,83.00
2023-10-09T08:56:27.100Z,83.00
2023-10-09T08:58:56.853Z,83.00
2023-10-09T09:01:27.494Z,83.00
2023-10-09T09:03:57.545Z,83.00
2023-10-09T09:06:26.091Z,82.90
2023-10-09T09:09:00.773Z,82.90
2023-10-09T09:11:32.528Z,82.80
2023-10-09T09:14:06.270Z,82.80
2023-10-09T09:16:37.735Z,82.80
2023-10-09T09:19:18.732Z,82.80
2023-10-09T09:21:55.692Z,82.70
2023-10-09T09:24:32.398Z,82.60
2023-10-09T09:27:14.153Z,82.60
2023-10-09T09:29:53.756Z,82.50
2023-10-09T09:32:37.954Z,82.40
2023-10-09T09:35:06.879Z,82.30
2023-10-09T09:37:51.678Z,82.30
2023-10-09T09:40:34.236Z,82.30
2023-10-09T09:43:07.468Z,82.30
2023-10-09T09:45:37.827Z,82.30
2023-10-09T09:48:18.425Z,82.20
2023-10-09T09:50:48.703Z,82.20
2023-10-09T09:53:24.697Z,82.10
2023-10-09T09:55:59.716Z,82.00
2023-10-09T09:58:36.156Z,81.90
2023-10-09T10:01:19.467Z,81.90
2023-10-09T10:03:57.574Z,82.00
2023-10-09T10:06:33.899Z,81.90
2023-10-09T10:09:02.073Z,81.80
2023-10-09T10:11:45.817Z,81.80
2023-10-09T10:14:23.599Z,81.70
2023-10-09T10:17:09.538Z,81.70
2023-10-09T10:20:32.701Z,81.60
2023-10-09T10:23:27.091Z,81.60
2023-10-09T10:26:01.630Z,81.40
2023-10-09T10:28:47.043Z,81.50
2023-10-09T10:31:17.292Z,81.30
2023-10-09T10:34:12.148Z,81.10
2023-10-09T10:36:45.260Z,81.00
2023-10-09T10:39:22.755Z,81.00
2023-10-09T10:41:56.980Z,80.80
2023-10-09T10:44:44.279Z,80.60
2023-10-09T10:47:26.541Z,80.60
2023-10-09T10:50:00.451Z,80.70
2023-10-09T10:52:43.038Z,80.70
2023-10-09T10:55:36.896Z,80.60
2023-10-09T10:58:11.560Z,80.50
2023-10-09T11:01:01.342Z,80.40
2023-10-09T11:03:37.109Z,80.40
2023-10-09T11:06:16.700Z,80.20
2023-10-09T11:08:55.879Z,80.20
2023-10-09T11:11:42.337Z,80.20
2023-10-09T11:14:16.078Z,80.30
2023-10-09T11:16:48.873Z,80.20
2023-10-09T11:19:33.296Z,80.20
2023-10-09T11:22:16.337Z,80.20
2023-10-09T11:24:45.378Z,80.20
2023-10-09T11:27:21.691Z,80.20
2023-10-09T11:30:06.824Z,80.10
2023-10-09T11:32:39.775Z,80.00
2023-10-09T11:35:28.972Z,79.80
2023-10-09T11:38:01.600Z,79.40
2023-10-09T11:40:44.290Z,78.90
2023-10-09T11:43:16.620Z,78.60
2023-10-09T11:45:56.620Z,78.20
2023-10-09T11:48:33.066Z,78.00
2023-10-09T11:51:20.153Z,77.90
2023-10-09T11:53:51.195Z,77.70
2023-10-09T11:56:21.228Z,77.50
2023-10-09T11:58:52.255Z,77.30
2023-10-09T12:01:25.856Z,77.00
2023-10-09T12:03:59.536Z,76.90
2023-10-09T12:06:33.515Z,76.60
2023-10-09T12:09:02.134Z,76.60
2023-10-09T12:11:31.402Z,76.30
2023-10-09T12:14:02.513Z,76.20
2023-10-09T12:16:41.148Z,76.10
2023-10-09T12:19:10.541Z,75.80
2023-10-09T12:21:44.058Z,75.80
2023-10-09T12:24:13.431Z,75.80
2023-10-09T12:26:47.355Z,75.80
2023-10-09T12:29:20.817Z,75.80
2023-10-09T12:31:50.136Z,75.60
2023-10-09T12:34:19.753Z,75.60
2023-10-09T12:36:51.289Z,75.50
2023-10-09T12:39:19.965Z,75.30
2023-10-09T12:41:49.598Z,75.10
2023-10-09T12:44:20.209Z,74.80
2023-10-09T12:46:54.242Z,74.60
2023-10-09T12:49:26.521Z,74.40
2023-10-09T12:51:59.920Z,74.10
2023-10-09T12:54:30.549Z,73.80
2023-10-09T12:57:01.170Z,73.70
2023-10-09T12:59:30.744Z,73.40
2023-10-09T13:01:59.878Z,73.20
2023-10-09T13:04:33.191Z,73.20
2023-10-09T13:07:06.208Z,72.70
2023-10-09T13:09:43.957Z,72.60
2023-10-09T13:12:19.876Z,72.40
2023-10-09T13:14:54.209Z,72.30
2023-10-09T13:17:23.352Z,72.20
2023-10-09T13:19:52.465Z,72.20
2023-10-09T13:22:24.485Z,72.00
2023-10-09T13:25:04.690Z,71.90
2023-10-09T13:27:35.592Z,71.60
2023-10-09T13:30:09.687Z,71.40
2023-10-09T13:32:37.971Z,71.30
2023-10-09T13:35:07.963Z,71.20
2023-10-09T13:37:38.205Z,71.10
2023-10-09T13:40:11.650Z,70.80
2023-10-09T13:42:40.244Z,70.70
2023-10-09T13:45:28.213Z,70.60
2023-10-09T13:47:59.436Z,70.20
2023-10-09T13:50:34.194Z,70.30
2023-10-09T13:53:08.812Z,70.20
2023-10-09T13:55:44.539Z,70.10
2023-10-09T13:58:15.499Z,69.90
2023-10-09T14:00:47.784Z,69.60
2023-10-09T14:03:23.196Z,69.40
2023-10-09T14:05:56.126Z,69.40
2023-10-09T14:08:24.900Z,69.30
2023-10-09T14:10:53.644Z,69.20
2023-10-09T14:13:29.938Z,69.00
2023-10-09T14:16:04.369Z,68.90
2023-10-09T14:18:33.554Z,68.80
2023-10-09T14:21:06.294Z,68.60
2023-10-09T14:23:36.507Z,68.70
2023-10-09T14:26:07.591Z,68.70
2023-10-09T14:28:38.732Z,68.60
2023-10-09T14:31:14.819Z,68.60
2023-10-09T14:33:49.528Z,68.70
2023-10-09T14:36:21.778Z,68.70
2023-10-09T14:38:53.697Z,68.70
2023-10-09T14:41:24.612Z,68.90
2023-10-09T14:43:53.758Z,69.00
2023-10-09T14:46:26.933Z,69.00
2023-10-09T14:48:55.500Z,69.00
2023-10-09T14:51:29.109Z,69.00
2023-10-09T14:54:03.037Z,69.00
2023-10-09T14:56:31.870Z,69.00
2023-10-09T14:59:05.921Z,68.90
2023-10-09T15:01:37.114Z,68.90
2023-10-09T15:04:05.882Z,68.90
2023-10-09T15:06:36.361Z,68.90
2023-10-09T15:09:10.443Z,69.00
2023-10-09T15:11:41.371Z,69.00
2023-10-09T15:14:11.795Z,69.00
2023-10-09T15:16:43.893Z,69.00
2023-10-09T15:19:12.978Z,69.10
2023-10-09T15:21:45.246Z,69.10
2023-10-09T15:24:19.403Z,69.10
2023-10-09T15:26:53.590Z,69.20
2023-10-09T15:29:24.692Z,69.30
2023-10-09T15:31:55.318Z,69.40
2023-10-09T15:34:25.675Z,69.50
2023-10-09T15:36:54.711Z,69.60
2023-10-09T15:39:25.324Z,69.70
2023-10-09T15:41:54.052Z,69.80
2023-10-09T15:44:27.967Z,69.80
2023-10-09T15:47:01.090Z,70.00
2023-10-09T15:49:31.565Z,70.10
2023-10-09T15:52:02.319Z,70.20
2023-10-09T15:54:30.793Z,70.30
2023-10-09T15:57:12.582Z,70.50
2023-10-09T15:59:41.919Z,70.60
2023-10-09T16:02:12.368Z,70.70
2023-10-09T16:04:44.789Z,70.80
2023-10-09T16:07:14.338Z,71.00
2023-10-09T16:09:42.605Z,71.00
2023-10-09T16:12:14.101Z,71.10
2023-10-09T16:14:42.929Z,71.20
2023-10-09T16:17:13.568Z,71.20
2023-10-09T16:19:43.762Z,71.30
2023-10-09T16:22:14.178Z,71.40
2023-10-09T16:24:42.774Z,71.50
2023-10-09T16:27:15.545Z,71.60
2023-10-09T16:29:46.132Z,71.80
2023-10-09T16:32:15.990Z,71.90
2023-10-09T16:34:45.424Z,72.00
2023-10-09T16:37:15.175Z,72.10
2023-10-09T16:39:48.411Z,72.20
2023-10-09T16:42:17.228Z,72.40
2023-10-09T16:44:49.135Z,72.50
2023-10-09T16:47:19.291Z,72.60
2023-10-09T16:49:53.397Z,72.80
2023-10-09T16:52:21.573Z,72.80
2023-10-09T16:54:51.298Z,72.90
2023-10-09T16:57:20.187Z,73.10
2023-10-09T16:59:50.384Z,73.20
2023-10-09T17:02:39.665Z,73.30
2023-10-09T17:05:13.799Z,73.40
2023-10-09T17:07:45.979Z,73.50
2023-10-09T17:10:18.264Z,73.60
2023-10-09T17:12:47.683Z,73.70
2023-10-09T17:15:17.792Z,73.80
2023-10-09T17:17:50.915Z,73.90
2023-10-09T17:20:22.613Z,74.00
2023-10-09T17:22:52.037Z,74.00
2023-10-09T17:25:24.286Z,74.10
2023-10-09T17:27:54.817Z,74.30
2023-10-09T17:30:23.541Z,74.30
2023-10-09T17:32:53.027Z,74.50
2023-10-09T17:35:21.414Z,74.60
2023-10-09T17:37:54.629Z,74.60
2023-10-09T17:40:27.029Z,74.80
2023-10-09T17:42:57.714Z,74.80
2023-10-09T17:45:26.393Z,74.90
2023-10-09T17:48:01.607Z,75.00
2023-10-09T17:50:31.526Z,75.10
2023-10-09T17:53:02.793Z,75.20
2023-10-09T17:55:31.469Z,75.30
2023-10-09T17:58:00.899Z,75.30
2023-10-09T18:00:35.511Z,75.30
2023-10-09T18:03:31.502Z,75.40
2023-10-09T18:06:07.435Z,75.50
2023-10-09T18:08:37.523Z,75.60
2023-10-09T18:11:07.388Z,75.60
2023-10-09T18:13:37.065Z,75.60
2023-10-09T18:16:09.362Z,75.60
2023-10-09T18:18:44.073Z,75.60
2023-10-09T18:21:18.096Z,75.80
2023-10-09T18:23:46.636Z,75.80
2023-10-09T18:26:16.346Z,75.80
2023-10-09T18:28:46.952Z,75.80
2023-10-09T18:31:18.830Z,75.80
2023-10-09T18:33:53.961Z,75.90
2023-10-09T18:36:22.948Z,75.90
2023-10-09T18:38:53.252Z,75.90
2023-10-09T18:41:25.024Z,75.90
2023-10-09T18:43:56.778Z,76.00
2023-10-09T18:46:28.160Z,76.00
2023-10-09T18:49:02.608Z,76.00
2023-10-09T18:51:33.576Z,76.10
2023-10-09T18:54:06.640Z,76.10
2023-10-09T18:56:35.772Z,76.10
2023-10-09T18:59:11.700Z,76.10
2023-10-09T19:01:40.729Z,76.10
2023-10-09T19:04:10.789Z,76.10
2023-10-09T19:06:39.463Z,76.10
2023-10-09T19:09:08.909Z,76.10
2023-10-09T19:11:40.156Z,76.10
2023-10-09T19:14:10.570Z,76.20
2023-10-09T19:16:42.383Z,76.20
2023-10-09T19:19:21.036Z,76.20
2023-10-09T19:21:54.398Z,76.20
2023-10-09T19:24:25.497Z,76.20
2023-10-09T19:26:53.975Z,76.10
2023-10-09T19:29:31.716Z,76.20
2023-10-09T19:31:59.981Z,76.20
2023-10-09T19:34:29.776Z,76.30
2023-10-09T19:36:57.741Z,76.60
2023-10-09T19:39:25.662Z,76.60
2023-10-09T19:41:53.685Z,76.60
2023-10-09T19:44:21.614Z,76.60
2023-10-09T19:46:49.809Z,76.70
2023-10-09T19:49:20.013Z,76.70
2023-10-09T19:51:51.053Z,76.80
2023-10-09T19:54:22.379Z,76.70
2023-10-09T19:56:50.820Z,76.80
2023-10-09T19:59:19.378Z,76.80
2023-10-09T20:01:49.136Z,76.80
2023-10-09T20:04:17.538Z,76.70
2023-10-09T20:06:46.589Z,76.80
2023-10-09T20:09:18.291Z,76.80
2023-10-09T20:11:46.686Z,76.70
2023-10-09T20:14:16.538Z,76.70
2023-10-09T20:16:44.688Z,76.70
2023-10-09T20:19:12.631Z,76.80
2023-10-09T20:21:40.610Z,76.70
2023-10-09T20:24:08.928Z,76.70
2023-10-09T20:26:42.836Z,76.80
2023-10-09T20:29:14.297Z,76.60
2023-10-09T20:31:45.802Z,76.60
2023-10-09T20:34:14.038Z,76.60
2023-10-09T20:36:43.252Z,76.60
2023-10-09T20:39:13.639Z,76.80
2023-10-09T20:41:43.345Z,76.80
2023-10-09T20:44:13.843Z,76.90
2023-10-09T20:46:43.815Z,76.90
2023-10-09T20:49:15.158Z,76.90
2023-10-09T20:51:56.560Z,77.00
2023-10-09T20:54:26.381Z,76.90
2023-10-09T20:56:56.793Z,76.90
2023-10-09T20:59:24.947Z,76.90
2023-10-09T21:01:53.702Z,76.90
2023-10-09T21:04:22.893Z,76.70
2023-10-09T21:06:50.850Z,76.90
2023-10-09T21:09:19.101Z,76.90
2023-10-09T21:11:47.932Z,77.00
2023-10-09T21:14:18.140Z,77.10
2023-10-09T21:16:47.254Z,77.10
2023-10-09T21:19:15.807Z,77.10
2023-10-09T21:21:44.251Z,77.20
2023-10-09T21:24:14.920Z,77.20
2023-10-09T21:26:45.549Z,77.20
2023-10-09T21:29:13.725Z,77.10
2023-10-09T21:31:43.260Z,77.00
2023-10-09T21:34:11.601Z,76.90
2023-10-09T21:36:39.551Z,76.80
2023-10-09T21:39:09.550Z,76.80
2023-10-09T21:41:38.567Z,76.90
2023-10-09T21:44:09.024Z,76.80
2023-10-09T21:46:36.926Z,76.70
2023-10-09T21:49:08.618Z,76.70
2023-10-09T21:51:38.386Z,76.80
2023-10-09T21:54:07.126Z,76.80
2023-10-09T21:56:35.681Z,76.80
2023-10-09T21:59:05.425Z,76.80
2023-10-09T22:01:35.086Z,76.80
2023-10-09T22:04:06.650Z,76.80
2023-10-09T22:06:36.069Z,76.80
2023-10-09T22:09:08.744Z,76.70
2023-10-09T22:11:38.763Z,76.80
2023-10-09T22:14:07.549Z,76.90
2023-10-09T22:16:35.633Z,76.90
2023-10-09T22:19:14.313Z,76.90
2023-10-09T22:21:48.542Z,77.00
2023-10-09T22:24:19.799Z,77.00
2023-10-09T22:26:48.832Z,76.90
2023-10-09T22:29:19.697Z,76.90
2023-10-09T22:31:48.399Z,76.90
2023-10-09T22:34:16.573Z,76.90
2023-10-09T22:36:54.322Z,77.00
2023-10-09T22:39:25.921Z,77.00
2023-10-09T22:41:55.478Z,77.00
2023-10-09T22:44:25.265Z,77.00
2023-10-09T22:46:56.543Z,77.00
2023-10-09T22:49:29.340Z,77.10
2023-10-09T22:51:58.659Z,77.10
2023-10-09T22:54:35.260Z,77.10
2023-10-09T22:57:04.471Z,77.20
2023-10-09T22:59:33.292Z,77.20
2023-10-09T23:02:01.510Z,77.20
2023-10-09T23:04:39.079Z,77.20
2023-10-09T23:07:15.834Z,77.30
2023-10-09T23:09:51.629Z,77.40
2023-10-09T23:12:24.255Z,77.30
2023-10-09T23:14:53.798Z,77.40
2023-10-09T23:17:43.543Z,77.40
2023-10-09T23:20:23.972Z,77.30
2023-10-09T23:22:53.736Z,77.30
2023-10-09T23:25:31.080Z,77.50
2023-10-09T23:28:13.388Z,77.50
2023-10-09T23:30:44.376Z,77.50
2023-10-09T23:33:21.463Z,77.50
2023-10-09T23:35:52.386Z,77.50
2023-10-09T23:38:32.600Z,77.40
2023-10-09T23:41:04.510Z,77.40
2023-10-09T23:43:36.458Z,77.40
2023-10-09T23:46:09.158Z,77.40
2023-10-09T23:48:38.608Z,77.40
2023-10-09T23:51:13.300Z,77.40
2023-10-09T23:53:47.723Z,77.40
2023-10-09T23:56:35.949Z,77.30
2023-10-09T23:59:12.175Z,77.30
